Time;durP1;ratioP1;P1;durP2;ratioP2;P2;SDS_P1;SDS_P2;PMS_P1;PMS_P2;Temp;Humidity;BMP_temperature;BMP_pressure;BME280_temperature;BME280_humidity;BME280_pressure;Samples;Min_cycle;Max_cycle;Signal;HPM_P1;HPM_P2
2022/06/27 00:01:17;;;;;;;0.68;0.50;;;;;;;40.48;15.74;100560.88;4927690;29;20498;-76
2022/06/27 00:03:45;;;;;;;0.75;0.45;;;;;;;40.46;19.39;100565.59;4927678;29;20060;-77
2022/06/27 00:06:19;;;;;;;0.73;0.70;;;;;;;40.38;18.55;100562.81;4937977;29;20055;-75
2022/06/27 00:08:49;;;;;;;0.88;0.60;;;;;;;40.36;17.29;100562.09;4933819;29;20056;-78
2022/06/27 00:11:18;;;;;;;2.72;1.10;;;;;;;40.37;16.17;100558.41;4925474;29;20082;-76
2022/06/27 00:13:47;;;;;;;0.52;0.40;;;;;;;40.39;16.21;100554.53;4927013;29;20044;-76
2022/06/27 00:16:15;;;;;;;0.93;0.57;;;;;;;40.42;17.58;100550.66;4931776;28;20130;-76
2022/06/27 00:18:50;;;;;;;2.97;0.65;;;;;;;40.38;19.61;100557.38;4932470;28;20574;-76
2022/06/27 00:21:20;;;;;;;1.17;0.63;;;;;;;40.33;17.12;100554.28;4935116;29;20659;-77
2022/06/27 00:23:49;;;;;;;4.03;0.90;;;;;;;40.28;19.36;100562.03;4931570;29;20103;-77
2022/06/27 00:26:18;;;;;;;2.80;1.05;;;;;;;40.21;16.30;100551.75;4928855;29;20103;-76
2022/06/27 00:28:46;;;;;;;1.85;0.40;;;;;;;40.13;17.79;100550.81;4927433;29;20052;-78
2022/06/27 00:31:15;;;;;;;2.05;0.80;;;;;;;40.05;16.00;100550.72;4937739;29;20052;-75
2022/06/27 00:33:43;;;;;;;0.68;0.50;;;;;;;39.94;17.47;100544.50;4930338;29;20123;-77
2022/06/27 00:36:12;;;;;;;1.17;0.60;;;;;;;39.90;15.99;100553.91;4927525;29;20135;-76
2022/06/27 00:38:42;;;;;;;1.35;0.68;;;;;;;39.89;18.94;100549.50;4928682;29;20052;-75
2022/06/27 00:41:11;;;;;;;0.85;0.65;;;;;;;39.86;20.09;100546.25;4928806;29;20047;-75
2022/06/27 00:43:39;;;;;;;2.03;0.57;;;;;;;39.78;19.50;100549.69;4922546;29;20048;-77
2022/06/27 00:46:08;;;;;;;0.82;0.60;;;;;;;39.70;18.12;100547.72;4928255;29;20104;-76
2022/06/27 00:48:36;;;;;;;0.57;0.57;;;;;;;39.68;20.33;100547.03;4919780;29;20495;-75
2022/06/27 00:51:05;;;;;;;3.65;0.50;;;;;;;39.58;20.91;100546.19;4921863;29;20048;-74
2022/06/27 00:53:34;;;;;;;1.02;0.70;;;;;;;39.49;18.45;100539.81;4917346;29;20108;-75
2022/06/27 00:56:05;;;;;;;0.82;0.50;;;;;;;39.42;16.98;100543.25;4928618;29;20502;-74
2022/06/27 00:58:34;;;;;;;1.55;0.70;;;;;;;39.39;16.91;100541.69;4924584;29;20498;-74
2022/06/27 01:01:03;;;;;;;1.48;0.80;;;;;;;39.34;20.35;100533.16;4920067;29;20044;-73
2022/06/27 01:03:31;;;;;;;2.05;0.70;;;;;;;39.33;18.33;100542.25;4915925;29;20055;-75
2022/06/27 01:06:00;;;;;;;2.17;0.75;;;;;;;39.25;20.68;100536.72;4933755;29;20046;-75
2022/06/27 01:08:28;;;;;;;0.63;0.60;;;;;;;39.17;19.07;100540.16;4937306;29;20433;-75
2022/06/27 01:10:57;;;;;;;2.13;0.68;;;;;;;39.10;18.67;100537.16;4929300;29;20055;-75
2022/06/27 01:13:27;;;;;;;0.98;0.50;;;;;;;39.04;16.61;100536.91;4945031;29;20117;-75
2022/06/27 01:15:56;;;;;;;1.02;0.43;;;;;;;39.02;19.88;100539.75;4933515;29;20493;-75
2022/06/27 01:18:25;;;;;;;1.35;0.80;;;;;;;38.96;18.46;100532.22;4934994;28;20063;-75
2022/06/27 01:20:53;;;;;;;0.98;0.40;;;;;;;38.89;18.19;100531.91;4933904;29;20395;-75
2022/06/27 01:23:23;;;;;;;1.77;0.52;;;;;;;38.82;20.29;100530.78;4934417;29;20056;-76
2022/06/27 01:25:52;;;;;;;1.33;0.60;;;;;;;38.74;21.09;100528.78;4926795;29;20044;-75
2022/06/27 01:28:20;;;;;;;1.83;0.50;;;;;;;38.71;18.80;100533.63;4934710;29;20043;-76
2022/06/27 01:30:50;;;;;;;1.92;0.45;;;;;;;38.64;22.25;100538.75;4936419;29;20505;-75
2022/06/27 01:33:18;;;;;;;0.93;0.55;;;;;;;38.54;18.41;100532.50;4923260;29;20051;-75
2022/06/27 01:35:47;;;;;;;0.95;0.70;;;;;;;38.41;18.52;100540.84;4931172;29;20063;-77
2022/06/27 01:38:15;;;;;;;3.58;0.85;;;;;;;38.33;19.33;100543.41;4934022;29;20052;-76
2022/06/27 01:40:46;;;;;;;1.08;0.55;;;;;;;38.26;19.10;100545.81;4930051;29;20578;-75
2022/06/27 01:43:16;;;;;;;1.38;0.77;;;;;;;38.22;21.73;100538.13;4929715;29;20095;-75
2022/06/27 01:45:45;;;;;;;0.63;0.50;;;;;;;38.16;20.77;100539.50;4933382;29;20059;-74
2022/06/27 01:48:14;;;;;;;1.67;0.60;;;;;;;38.06;20.32;100538.66;4924507;29;20051;-75
2022/06/27 01:50:49;;;;;;;2.33;0.60;;;;;;;37.94;18.18;100541.44;4921253;29;20052;-75
2022/06/27 01:53:18;;;;;;;1.58;0.50;;;;;;;37.89;19.74;100550.91;4924556;29;20114;-76
2022/06/27 01:55:49;;;;;;;1.30;0.50;;;;;;;37.83;21.32;100546.94;4934838;29;20063;-76
2022/06/27 01:58:18;;;;;;;2.03;0.80;;;;;;;37.75;21.21;100545.91;4938547;29;20529;-75
2022/06/27 02:00:47;;;;;;;1.35;0.70;;;;;;;37.67;20.41;100543.88;4935093;29;20051;-75
2022/06/27 02:03:16;;;;;;;2.47;1.27;;;;;;;37.57;18.80;100543.84;4936694;29;20040;-75
2022/06/27 02:05:45;;;;;;;3.17;0.73;;;;;;;37.52;23.29;100546.03;4933488;29;20051;-75
2022/06/27 02:08:13;;;;;;;2.75;0.60;;;;;;;37.41;22.33;100543.41;4931520;29;20070;-75
2022/06/27 02:10:42;;;;;;;0.68;0.57;;;;;;;37.35;23.14;100546.69;4931988;29;20099;-75
2022/06/27 02:13:12;;;;;;;1.15;0.77;;;;;;;37.25;23.87;100550.16;4932525;29;20114;-76
2022/06/27 02:16:06;;;;;;;2.30;0.80;;;;;;;37.14;19.71;100542.16;4932066;29;20111;-76
2022/06/27 02:18:42;;;;;;;2.13;0.70;;;;;;;37.08;21.71;100542.66;4931065;28;20141;-76
2022/06/27 02:21:13;;;;;;;1.70;0.60;;;;;;;37.02;23.37;100540.44;4928940;29;20549;-75
2022/06/27 02:23:41;;;;;;;;;;;;;;;36.94;20.66;100545.66;4932091;29;20040;-75
2022/06/27 02:26:13;;;;;;;1.33;0.70;;;;;;;36.87;21.71;100548.88;4937436;29;19927;-74
2022/06/27 02:28:43;;;;;;;1.25;0.77;;;;;;;36.81;22.97;100552.09;4933170;29;20080;-76
2022/06/27 02:31:13;;;;;;;1.95;0.57;;;;;;;36.72;25.96;100542.09;4946518;29;20051;-75
2022/06/27 02:33:44;;;;;;;1.77;0.57;;;;;;;36.61;23.94;100547.53;4932717;29;20044;-76
2022/06/27 02:36:14;;;;;;;1.50;0.60;;;;;;;36.46;22.82;100545.06;4932319;29;20047;-76
2022/06/27 02:38:44;;;;;;;1.17;0.80;;;;;;;36.37;22.98;100547.69;4932716;29;20062;-76
2022/06/27 02:41:17;;;;;;;0.90;0.70;;;;;;;36.30;22.38;100543.78;4930015;29;20040;-76
2022/06/27 02:43:49;;;;;;;0.70;0.70;;;;;;;36.25;23.48;100546.84;4929112;29;20047;-76
2022/06/27 02:46:18;;;;;;;1.80;0.70;;;;;;;36.18;24.00;100553.72;4930760;29;20052;-75
2022/06/27 02:48:51;;;;;;;1.92;1.08;;;;;;;36.07;22.43;100552.72;4932508;29;20107;-74
2022/06/27 02:51:23;;;;;;;1.23;0.77;;;;;;;35.98;22.62;100558.84;4933819;29;20055;-75
2022/06/27 02:53:59;;;;;;;0.82;0.70;;;;;;;35.92;25.68;100569.25;4930317;29;20052;-74
2022/06/27 02:56:29;;;;;;;1.88;0.70;;;;;;;35.81;24.02;100565.59;4937095;29;20377;-75
2022/06/27 02:59:08;;;;;;;0.60;0.60;;;;;;;35.72;24.41;100568.19;4922267;29;20066;-74
2022/06/27 03:01:39;;;;;;;1.25;0.60;;;;;;;35.63;26.91;100569.75;4926013;29;20494;-76
2022/06/27 03:04:07;;;;;;;;;;;;;;;35.50;26.47;100559.06;4919723;29;20485;-75
2022/06/27 03:06:36;;;;;;;0.52;0.50;;;;;;;35.44;26.18;100564.94;4933950;29;19926;-76
2022/06/27 03:09:04;;;;;;;0.90;0.63;;;;;;;35.34;25.84;100563.94;4932520;29;20517;-74
2022/06/27 03:11:33;;;;;;;1.42;0.70;;;;;;;35.22;26.13;100561.22;4928876;29;20517;-75
2022/06/27 03:14:03;;;;;;;2.88;0.90;;;;;;;35.13;24.60;100567.28;4935430;29;20052;-75
2022/06/27 03:16:32;;;;;;;0.60;0.60;;;;;;;34.99;24.48;100565.63;4933893;29;20102;-74
2022/06/27 03:19:00;;;;;;;0.73;0.60;;;;;;;34.90;25.46;100570.88;4932048;28;20154;-73
2022/06/27 03:21:29;;;;;;;2.55;0.75;;;;;;;34.80;25.31;100570.72;4932791;29;20048;-75
2022/06/27 03:23:57;;;;;;;2.33;0.80;;;;;;;34.69;25.10;100574.19;4929316;29;20106;-75
2022/06/27 03:26:26;;;;;;;2.25;0.80;;;;;;;34.57;25.93;100570.56;4932535;29;20051;-75
2022/06/27 03:28:54;;;;;;;3.45;0.80;;;;;;;34.45;26.44;100570.59;4929575;29;20055;-75
2022/06/27 03:31:25;;;;;;;1.30;0.63;;;;;;;34.31;27.52;100577.84;4940945;29;20058;-75
2022/06/27 03:33:54;;;;;;;0.85;0.60;;;;;;;34.16;26.69;100571.78;4929739;29;20104;-75
2022/06/27 03:36:23;;;;;;;2.17;0.85;;;;;;;34.03;28.28;100573.59;4935601;29;20074;-75
2022/06/27 03:38:51;;;;;;;5.82;0.93;;;;;;;33.90;28.54;100583.47;4932985;29;20051;-73
2022/06/27 03:41:20;;;;;;;0.85;0.63;;;;;;;33.74;29.90;100581.03;4932947;29;20052;-74
2022/06/27 03:43:49;;;;;;;0.90;0.75;;;;;;;33.57;29.69;100579.50;4933341;29;20062;-74
2022/06/27 03:46:17;;;;;;;1.10;0.82;;;;;;;33.42;29.19;100591.28;4933362;29;20135;-74
2022/06/27 03:51:32;;;;;;;1.27;0.60;;;;;;;33.10;32.63;100587.19;4924111;29;20065;-74
2022/06/27 03:54:01;;;;;;;1.38;0.90;;;;;;;32.95;32.16;100594.38;4931179;29;20051;-75
2022/06/27 03:56:29;;;;;;;2.20;1.00;;;;;;;32.82;32.76;100587.28;4932421;29;20545;-75
2022/06/27 03:58:58;;;;;;;2.22;0.93;;;;;;;32.66;33.78;100588.28;4931112;29;20051;-75
2022/06/27 04:01:27;;;;;;;4.20;0.90;;;;;;;32.54;34.90;100600.66;4932816;29;20444;-75
2022/06/27 04:03:57;;;;;;;3.97;1.17;;;;;;;32.43;35.45;100602.28;4930935;29;20082;-75
2022/06/27 04:06:25;;;;;;;2.88;1.15;;;;;;;32.19;37.47;100621.66;4926454;29;20064;-76
2022/06/27 04:08:54;;;;;;;1.42;0.90;;;;;;;31.90;39.29;100616.25;4917967;29;20502;-77
2022/06/27 04:11:22;;;;;;;1.02;0.77;;;;;;;31.68;40.53;100613.19;4931539;29;20052;-76
2022/06/27 04:13:51;;;;;;;1.83;0.73;;;;;;;31.53;39.03;100617.66;4930190;29;20059;-74
2022/06/27 04:16:19;;;;;;;1.55;0.90;;;;;;;31.41;39.34;100613.91;4930380;29;20094;-76
2022/06/27 04:18:48;;;;;;;1.67;0.73;;;;;;;31.34;40.80;100617.00;4932662;28;20055;-72
2022/06/27 04:21:18;;;;;;;4.20;0.93;;;;;;;31.19;42.23;100624.97;4931203;29;20486;-74
2022/06/27 04:23:47;;;;;;;1.95;0.90;;;;;;;31.04;41.58;100626.75;4930152;29;20498;-75
2022/06/27 04:26:15;;;;;;;1.60;0.93;;;;;;;30.94;40.69;100627.38;4927684;29;20052;-74
2022/06/27 04:28:44;;;;;;;2.47;0.80;;;;;;;30.78;41.07;100635.34;4936500;29;20055;-75
2022/06/27 04:31:13;;;;;;;2.92;0.90;;;;;;;30.62;40.65;100641.56;4930082;29;20081;-74
2022/06/27 04:33:41;;;;;;;1.45;0.70;;;;;;;30.50;40.56;100636.06;4931038;29;20040;-75
2022/06/27 04:36:12;;;;;;;2.20;0.70;;;;;;;30.37;41.45;100638.53;4933332;29;20061;-74
2022/06/27 04:38:42;;;;;;;1.27;0.88;;;;;;;30.26;41.36;100644.41;4932113;29;20052;-73
2022/06/27 04:41:11;;;;;;;1.95;0.90;;;;;;;30.16;43.83;100646.72;4930620;29;20054;-73
2022/06/27 04:43:39;;;;;;;2.80;1.00;;;;;;;30.04;41.83;100644.75;4924427;29;20493;-71
2022/06/27 04:46:08;;;;;;;2.42;0.98;;;;;;;29.94;42.30;100648.81;4931559;29;20057;-72
2022/06/27 04:48:37;;;;;;;2.30;1.00;;;;;;;29.82;42.32;100666.34;4928815;29;20052;-73
2022/06/27 04:51:06;;;;;;;2.78;1.00;;;;;;;29.67;42.04;100662.66;4935334;29;20048;-73
2022/06/27 04:53:35;;;;;;;3.83;1.15;;;;;;;29.55;41.72;100664.16;4934528;29;20185;-73
2022/06/27 04:56:08;;;;;;;1.80;0.73;;;;;;;29.40;41.99;100660.44;4933550;29;20240;-73
2022/06/27 04:58:37;;;;;;;5.05;1.17;;;;;;;29.31;42.39;100665.38;4935826;29;20143;-73
2022/06/27 05:01:05;;;;;;;2.65;1.00;;;;;;;29.21;41.54;100662.31;4931638;29;20059;-73
2022/06/27 05:03:34;;;;;;;3.22;0.90;;;;;;;29.09;41.27;100666.47;4932901;29;20050;-72
2022/06/27 05:06:02;;;;;;;2.38;1.20;;;;;;;28.98;41.14;100674.94;4937590;29;20457;-74
2022/06/27 05:08:31;;;;;;;2.08;1.00;;;;;;;28.82;42.14;100673.94;4942135;29;20055;-73
2022/06/27 05:11:00;;;;;;;3.50;1.10;;;;;;;28.64;42.36;100674.81;4933344;29;20099;-73
2022/06/27 05:13:38;;;;;;;1.30;1.00;;;;;;;28.49;43.90;100682.56;4934074;29;20458;-72
2022/06/27 05:16:07;;;;;;;4.35;1.30;;;;;;;28.38;43.01;100675.06;4934492;29;20052;-72
2022/06/27 05:18:41;;;;;;;3.78;1.13;;;;;;;28.31;43.52;100680.72;4929205;28;20052;-72
2022/06/27 05:21:10;;;;;;;3.42;1.20;;;;;;;28.24;44.74;100687.25;4917700;29;20495;-72
2022/06/27 05:23:39;;;;;;;2.38;1.00;;;;;;;28.18;47.32;100683.94;4914648;29;20056;-72
2022/06/27 05:26:08;;;;;;;1.55;0.90;;;;;;;28.09;49.31;100687.03;4918270;29;20131;-72
2022/06/27 05:28:38;;;;;;;1.38;0.80;;;;;;;27.96;48.25;100686.69;4916261;29;20100;-71
2022/06/27 05:31:06;;;;;;;1.95;0.90;;;;;;;27.87;49.93;100688.91;4916783;29;20103;-71
2022/06/27 05:33:35;;;;;;;1.27;0.90;;;;;;;27.77;52.08;100688.41;4911522;29;20112;-71
2022/06/27 05:36:04;;;;;;;2.33;0.95;;;;;;;27.67;51.50;100687.94;4908243;29;20113;-71
2022/06/27 05:38:33;;;;;;;1.85;0.70;;;;;;;27.56;49.87;100684.88;4915908;29;20055;-71
2022/06/27 05:41:02;;;;;;;1.40;1.00;;;;;;;27.50;49.49;100682.47;4910857;29;20392;-72
2022/06/27 05:43:30;;;;;;;2.83;1.00;;;;;;;27.40;49.86;100686.44;4909816;29;20052;-70
2022/06/27 05:46:00;;;;;;;3.65;1.20;;;;;;;27.29;49.84;100690.41;4910297;29;20135;-71
2022/06/27 05:48:29;;;;;;;1.50;0.80;;;;;;;27.19;51.25;100682.84;4912981;29;20047;-71
2022/06/27 05:50:59;;;;;;;1.40;0.90;;;;;;;27.07;52.36;100692.16;4915681;29;20488;-70
2022/06/27 05:53:28;;;;;;;4.55;1.30;;;;;;;26.98;53.88;100687.22;4908140;29;20044;-70
2022/06/27 05:55:56;;;;;;;2.80;1.13;;;;;;;26.89;52.80;100688.44;4911262;29;20131;-70
2022/06/27 05:58:26;;;;;;;3.10;1.00;;;;;;;26.80;50.69;100688.81;4906872;29;20092;-71
2022/06/27 06:00:54;;;;;;;3.45;1.23;;;;;;;26.73;51.00;100693.50;4909657;29;20139;-72
2022/06/27 06:03:25;;;;;;;2.60;0.82;;;;;;;26.66;53.16;100697.31;4907734;29;20107;-72
2022/06/27 06:05:54;;;;;;;1.88;1.00;;;;;;;26.57;53.46;100693.22;4916595;29;20072;-72
2022/06/27 06:08:23;;;;;;;4.40;1.08;;;;;;;26.43;53.59;100696.34;4910096;29;20116;-71
2022/06/27 06:10:52;;;;;;;2.13;1.33;;;;;;;26.22;50.86;100697.16;4905911;29;20386;-71
2022/06/27 06:13:20;;;;;;;3.88;1.20;;;;;;;25.97;52.00;100703.34;4912566;29;20048;-71
2022/06/27 06:15:49;;;;;;;4.70;1.30;;;;;;;25.80;51.93;100706.53;4915983;29;20060;-71
2022/06/27 06:18:24;;;;;;;1.52;0.90;;;;;;;25.65;51.49;100713.22;4922095;28;20040;-72
2022/06/27 06:20:54;;;;;;;3.20;1.30;;;;;;;25.54;52.56;100714.50;4920489;29;20070;-71
2022/06/27 06:23:24;;;;;;;3.63;1.30;;;;;;;25.41;52.06;100714.91;4925943;29;20055;-71
2022/06/27 06:25:52;;;;;;;4.80;1.52;;;;;;;25.28;52.21;100717.09;4931219;29;20044;-71
2022/06/27 06:28:21;;;;;;;6.70;1.75;;;;;;;25.20;52.00;100719.13;4930288;29;20115;-71
2022/06/27 06:30:50;;;;;;;2.58;1.52;;;;;;;25.07;52.49;100709.81;4933272;29;20055;-71
2022/06/27 06:33:18;;;;;;;2.75;1.23;;;;;;;25.06;55.38;100723.97;4933201;29;20379;-71
2022/06/27 06:35:47;;;;;;;2.58;1.10;;;;;;;25.00;56.03;100722.38;4916971;29;20072;-71
2022/06/27 06:38:17;;;;;;;2.20;1.10;;;;;;;24.94;56.32;100724.31;4917636;29;20064;-70
2022/06/27 06:40:46;;;;;;;3.13;1.30;;;;;;;24.85;54.39;100731.66;4933235;29;20058;-71
2022/06/27 06:43:14;;;;;;;2.03;0.95;;;;;;;24.78;55.90;100735.38;4933597;29;20052;-71
2022/06/27 06:45:43;;;;;;;3.60;1.33;;;;;;;24.69;55.57;100740.94;4931645;29;20040;-70
2022/06/27 06:48:14;;;;;;;7.63;2.15;;;;;;;24.53;51.98;100742.28;4932855;29;20060;-71
2022/06/27 06:50:42;;;;;;;5.43;1.30;;;;;;;24.46;55.09;100741.56;4932893;29;20051;-71
2022/06/27 06:53:11;;;;;;;2.42;1.15;;;;;;;24.41;57.58;100746.97;4932119;29;20062;-72
2022/06/27 06:55:41;;;;;;;2.45;1.30;;;;;;;24.34;57.91;100744.56;4932329;29;20577;-72
2022/06/27 06:58:10;;;;;;;8.15;2.00;;;;;;;24.24;55.34;100743.97;4932785;29;20051;-71
2022/06/27 07:00:39;;;;;;;2.58;1.17;;;;;;;24.15;54.22;100757.41;4931454;29;20122;-70
2022/06/27 07:03:08;;;;;;;3.72;1.30;;;;;;;24.11;52.85;100758.41;4931488;29;20143;-70
2022/06/27 07:05:37;;;;;;;7.53;1.75;;;;;;;24.07;49.80;100757.59;4930510;29;20079;-71
2022/06/27 07:08:07;;;;;;;5.97;1.90;;;;;;;24.02;47.81;100755.09;4945700;29;20043;-71
2022/06/27 07:10:35;;;;;;;3.67;1.10;;;;;;;23.96;49.61;100749.97;4937420;29;20044;-71
2022/06/27 07:13:06;;;;;;;4.55;1.48;;;;;;;23.89;52.13;100763.38;4932536;29;20047;-71
2022/06/27 07:15:34;;;;;;;3.80;1.45;;;;;;;23.82;55.21;100762.66;4931732;29;20545;-71
2022/06/27 07:18:10;;;;;;;5.13;1.27;;;;;;;23.74;54.94;100769.88;4934781;28;20130;-72
2022/06/27 07:20:39;;;;;;;3.25;1.40;;;;;;;23.58;51.36;100759.69;4932816;29;20047;-72
2022/06/27 07:23:08;;;;;;;3.10;1.42;;;;;;;23.58;50.91;100770.25;4929609;29;20079;-72
2022/06/27 07:25:37;;;;;;;6.38;1.92;;;;;;;23.45;49.16;100767.94;4931150;29;20111;-72
2022/06/27 07:28:08;;;;;;;6.07;1.40;;;;;;;23.37;48.83;100781.34;4930341;29;20053;-71
2022/06/27 07:30:37;;;;;;;6.33;1.67;;;;;;;23.29;48.34;100775.34;4931997;29;20530;-71
2022/06/27 07:33:07;;;;;;;5.07;1.55;;;;;;;23.19;47.83;100772.91;4931919;29;20058;-71
2022/06/27 07:35:36;;;;;;;7.82;1.85;;;;;;;23.14;48.94;100784.50;4932856;29;20047;-71
2022/06/27 07:38:04;;;;;;;5.18;1.42;;;;;;;23.06;51.18;100782.00;4931881;29;20573;-71
2022/06/27 07:40:34;;;;;;;2.78;1.60;;;;;;;23.03;54.75;100787.38;4931746;29;20103;-71
2022/06/27 07:43:03;;;;;;;4.68;1.63;;;;;;;23.02;54.73;100784.75;4931147;29;20044;-72
2022/06/27 07:45:33;;;;;;;4.82;1.33;;;;;;;22.97;53.19;100790.94;4939271;29;20166;-71
2022/06/27 07:48:01;;;;;;;4.25;1.42;;;;;;;22.94;51.16;100788.38;4931305;29;20103;-70
2022/06/27 07:50:40;;;;;;;6.68;1.73;;;;;;;22.90;50.82;100785.84;4929332;29;20059;-71
2022/06/27 07:53:14;;;;;;;7.53;1.33;;;;;;;22.87;50.90;100788.56;4899068;29;20103;-71
2022/06/27 07:55:44;;;;;;;5.45;1.67;;;;;;;22.83;50.94;100794.78;4927067;29;20076;-71
2022/06/27 07:58:16;;;;;;;7.00;1.90;;;;;;;22.80;51.07;100795.72;4932527;29;20043;-71
2022/06/27 08:00:49;;;;;;;6.18;2.03;;;;;;;22.75;50.25;100798.47;4930896;29;20074;-71
2022/06/27 08:06:04;;;;;;;4.82;1.48;;;;;;;22.68;52.05;100798.63;4927909;29;20732;-71
2022/06/27 08:08:36;;;;;;;4.72;1.40;;;;;;;22.66;52.38;100798.66;4935849;29;20051;-70
2022/06/27 08:11:06;;;;;;;6.50;1.35;;;;;;;22.64;51.54;100795.16;4936391;29;20058;-72
2022/06/27 08:13:35;;;;;;;4.05;1.25;;;;;;;22.63;51.05;100801.34;4937895;29;20051;-71
2022/06/27 08:16:06;;;;;;;5.30;1.73;;;;;;;22.60;51.22;100798.75;4930960;29;20058;-71
2022/06/27 08:18:38;;;;;;;5.07;1.50;;;;;;;22.56;51.61;100799.72;4932321;28;20062;-71
2022/06/27 08:21:08;;;;;;;5.05;1.63;;;;;;;22.50;51.34;100803.34;4922933;28;20048;-71
2022/06/27 08:23:38;;;;;;;6.30;1.40;;;;;;;22.40;52.34;100812.31;4932285;29;20529;-70
2022/06/27 08:26:07;;;;;;;6.97;1.50;;;;;;;22.32;53.60;100814.22;4931508;29;20054;-70
2022/06/27 08:28:37;;;;;;;6.40;1.60;;;;;;;22.28;53.57;100802.88;4931856;29;20490;-70
2022/06/27 08:31:08;;;;;;;6.63;1.52;;;;;;;22.24;53.84;100805.59;4936709;29;20425;-70
2022/06/27 08:33:37;;;;;;;6.20;1.75;;;;;;;22.16;55.99;100806.56;4929383;29;20154;-70
2022/06/27 08:36:07;;;;;;;3.05;1.52;;;;;;;22.14;57.38;100815.38;4929892;29;20989;-70
2022/06/27 08:38:42;;;;;;;4.38;1.38;;;;;;;22.09;57.64;100807.56;4932065;29;20107;-71
2022/06/27 08:41:12;;;;;;;7.18;1.50;;;;;;;21.92;59.79;100815.75;4928265;29;20047;-71
2022/06/27 08:43:40;;;;;;;4.80;1.30;;;;;;;21.66;59.73;100810.03;4930899;29;20063;-70
2022/06/27 08:46:15;;;;;;;6.50;1.67;;;;;;;21.64;58.87;100817.06;4928271;29;20051;-71
2022/06/27 08:48:45;;;;;;;4.97;1.38;;;;;;;21.59;58.71;100824.19;4927142;29;20059;-71
2022/06/27 08:51:14;;;;;;;5.13;1.40;;;;;;;21.59;59.27;100829.44;4939351;29;20514;-71
2022/06/27 08:53:43;;;;;;;6.50;1.55;;;;;;;21.56;59.49;100822.47;4931159;29;20105;-71
2022/06/27 08:56:14;;;;;;;4.05;1.92;;;;;;;21.48;60.35;100812.03;4933625;29;20070;-71
2022/06/27 08:58:46;;;;;;;4.25;1.42;;;;;;;21.53;59.20;100825.13;4930528;29;20043;-71
2022/06/27 09:01:19;;;;;;;4.45;1.40;;;;;;;21.51;58.54;100819.91;4928704;29;20051;-71
2022/06/27 09:04:00;;;;;;;7.40;1.60;;;;;;;21.50;57.88;100827.81;4926791;29;20049;-71
2022/06/27 09:06:31;;;;;;;4.85;1.50;;;;;;;21.47;57.95;100820.84;4930529;29;20051;-71
2022/06/27 09:09:08;;;;;;;5.75;1.48;;;;;;;21.45;58.83;100821.75;4932035;29;20052;-71
2022/06/27 09:11:38;;;;;;;4.57;1.45;;;;;;;21.40;61.58;100827.09;4921734;29;20054;-71
2022/06/27 09:14:08;;;;;;;5.60;1.80;;;;;;;21.37;61.89;100823.59;4929571;29;20051;-71
2022/06/27 09:16:38;;;;;;;3.58;1.38;;;;;;;21.30;60.92;100822.78;4921342;29;20040;-71
2022/06/27 09:19:07;;;;;;;5.70;1.58;;;;;;;21.28;62.05;100827.19;4922916;28;20063;-71
2022/06/27 09:21:36;;;;;;;3.47;1.38;;;;;;;21.24;63.79;100825.53;4926339;29;20083;-71
2022/06/27 09:24:05;;;;;;;4.18;1.50;;;;;;;21.22;63.96;100832.56;4917853;29;20778;-71
2022/06/27 09:26:35;;;;;;;4.20;1.60;;;;;;;21.18;63.61;100833.50;4926128;29;20044;-71
2022/06/27 09:29:07;;;;;;;3.72;1.42;;;;;;;21.10;63.47;100829.22;4910845;29;20383;-71
2022/06/27 09:31:39;;;;;;;5.30;1.50;;;;;;;21.06;64.30;100834.53;4939010;29;20063;-71
2022/06/27 09:34:14;;;;;;;4.75;1.33;;;;;;;21.01;63.47;100831.94;4933108;29;20052;-70
2022/06/27 09:36:43;;;;;;;4.43;1.80;;;;;;;20.99;63.47;100831.09;4934674;29;20051;-71
2022/06/27 09:39:21;;;;;;;5.80;1.95;;;;;;;20.95;61.73;100834.66;4931395;29;20637;-71
2022/06/27 09:41:57;;;;;;;6.30;1.70;;;;;;;20.89;61.88;100839.97;4933636;29;20493;-70
2022/06/27 09:44:28;;;;;;;8.63;1.90;;;;;;;20.85;61.71;100833.91;4928164;29;20052;-71
2022/06/27 09:47:13;;;;;;;4.63;1.70;;;;;;;20.81;62.34;100832.19;4926636;29;20106;-70
2022/06/27 09:49:43;;;;;;;7.18;1.60;;;;;;;20.78;62.17;100828.72;4943518;29;20054;-70
2022/06/27 09:52:13;;;;;;;5.30;1.67;;;;;;;20.74;61.90;100822.63;4942129;29;20088;-70
2022/06/27 09:54:44;;;;;;;5.22;1.70;;;;;;;20.71;61.90;100825.31;4933506;29;20056;-70
2022/06/27 09:57:13;;;;;;;6.20;1.60;;;;;;;20.66;63.36;100825.34;4935963;29;20058;-70
2022/06/27 09:59:43;;;;;;;7.57;1.52;;;;;;;20.65;61.44;100818.34;4935716;29;20502;-71
2022/06/27 10:02:16;;;;;;;3.88;1.80;;;;;;;20.58;60.56;100821.06;4933819;29;20055;-70
2022/06/27 10:04:45;;;;;;;5.95;1.42;;;;;;;20.53;60.24;100813.19;4931806;29;20513;-71
2022/06/27 10:07:15;;;;;;;5.25;1.63;;;;;;;20.50;60.67;100807.94;4931893;29;20048;-70
2022/06/27 10:09:45;;;;;;;4.85;1.65;;;;;;;20.45;61.00;100812.38;4931379;29;20064;-71
2022/06/27 10:12:28;;;;;;;5.00;1.40;;;;;;;20.40;61.21;100812.44;4933658;29;20558;-70
2022/06/27 10:15:23;;;;;;;3.95;1.55;;;;;;;20.29;65.04;100823.06;4926413;29;20056;-70
2022/06/27 10:18:03;;;;;;;4.82;1.80;;;;;;;20.16;65.94;100823.16;4926824;29;20058;-70
2022/06/27 10:20:37;;;;;;;5.18;1.58;;;;;;;20.12;66.05;100814.47;4928100;28;20064;-70
2022/06/27 10:23:28;;;;;;;5.93;1.45;;;;;;;20.10;64.82;100821.47;4923902;29;20063;-70
2022/06/27 10:25:58;;;;;;;3.15;1.40;;;;;;;20.09;64.99;100825.00;4931123;29;20573;-70
2022/06/27 10:28:27;;;;;;;6.70;1.88;;;;;;;20.08;64.64;100818.00;4933967;29;20111;-69
2022/06/27 10:30:57;;;;;;;6.07;1.50;;;;;;;20.04;65.31;100811.91;4927327;29;20110;-70
2022/06/27 10:33:40;;;;;;;5.80;1.40;;;;;;;20.01;65.21;100821.56;4929132;29;20043;-70
2022/06/27 10:36:18;;;;;;;4.47;1.83;;;;;;;19.95;67.67;100818.97;4917029;29;20060;-70
2022/06/27 10:38:50;;;;;;;4.53;1.45;;;;;;;19.88;69.03;100812.91;4932953;29;20055;-70
2022/06/27 10:41:42;;;;;;;4.05;1.27;;;;;;;19.86;69.98;100820.81;4928552;29;20146;-69
2022/06/27 10:44:32;;;;;;;3.47;1.40;;;;;;;19.73;71.26;100816.53;4914590;29;20518;-69
2022/06/27 10:47:02;;;;;;;8.20;1.40;;;;;;;19.67;70.82;100817.38;4928138;29;20139;-70
2022/06/27 10:49:33;;;;;;;6.70;1.40;;;;;;;19.67;71.09;100813.91;4927407;29;20043;-70
2022/06/27 10:52:34;;;;;;;4.03;1.33;;;;;;;19.66;70.14;100815.66;4932170;29;20051;-70
2022/06/27 10:55:03;;;;;;;4.30;1.50;;;;;;;19.66;70.34;100820.03;4918117;29;20047;-70
2022/06/27 10:57:46;;;;;;;8.60;1.90;;;;;;;19.65;70.28;100818.28;4928527;29;20047;-70
2022/06/27 11:00:49;;;;;;;5.80;1.50;;;;;;;19.60;70.99;100822.69;4930975;29;20047;-70
2022/06/27 11:03:25;;;;;;;4.28;1.63;;;;;;;19.46;70.31;100818.41;4931216;29;20052;-70
2022/06/27 11:05:59;;;;;;;3.85;1.63;;;;;;;19.35;71.42;100830.72;4931591;29;20470;-70
2022/06/27 11:08:29;;;;;;;4.10;1.63;;;;;;;19.31;70.90;100823.75;4936279;29;20155;-70
2022/06/27 11:10:57;;;;;;;9.95;1.65;;;;;;;19.32;70.29;100822.88;4927998;29;20055;-70
2022/06/27 11:13:42;;;;;;;5.80;1.67;;;;;;;19.33;69.60;100824.59;4931814;29;20043;-70
2022/06/27 11:16:15;;;;;;;4.68;1.60;;;;;;;19.32;69.91;100824.63;4924136;29;20048;-70
2022/06/27 11:18:49;;;;;;;3.83;1.73;;;;;;;19.31;69.79;100826.38;4936076;28;20068;-70
2022/06/27 11:21:20;;;;;;;4.22;1.45;;;;;;;19.30;68.37;100832.50;4930925;29;20055;-70
2022/06/27 11:24:01;;;;;;;4.57;1.80;;;;;;;19.30;68.07;100831.63;4929241;29;20704;-70
2022/06/27 11:26:31;;;;;;;6.03;1.83;;;;;;;19.26;67.79;100828.13;4931016;29;20040;-71
2022/06/27 11:32:01;;;;;;;5.10;1.60;;;;;;;19.21;68.83;100830.78;4923128;29;20426;-69
2022/06/27 11:34:30;;;;;;;6.30;1.55;;;;;;;19.18;67.14;100827.31;4939832;29;20044;-70
2022/06/27 11:37:04;;;;;;;6.57;1.95;;;;;;;19.16;65.95;100831.69;4933785;29;20063;-70
2022/06/27 11:39:34;;;;;;;5.75;1.75;;;;;;;19.11;66.77;100842.22;4932595;29;20055;-70
2022/06/27 11:42:09;;;;;;;4.57;1.40;;;;;;;19.05;68.74;100842.22;4929730;29;20052;-70
2022/06/27 11:44:39;;;;;;;3.08;1.20;;;;;;;18.99;68.28;100843.13;4925483;29;20482;-70
2022/06/27 11:47:09;;;;;;;8.45;1.60;;;;;;;18.95;67.47;100841.41;4932698;29;20109;-70
2022/06/27 11:49:39;;;;;;;4.70;1.73;;;;;;;18.95;67.45;100844.03;4932766;29;20051;-69
2022/06/27 11:52:12;;;;;;;3.63;1.67;;;;;;;18.94;66.77;100850.13;4935507;29;20047;-70